»·PEaware :: N515ZT KSBP-KBFL

N515ZT :: KSBP-KBFL

FLIGHT INFORMATION

Flight Status: Arrived
Operator: Privately registered:
United States
More flights under this callsign
Pilot: Marty P. (27464)
Aircraft: BEECH AIRCRAFT BARON
(BE58)
More flights by this aircraft type
Origin: KSBP San Luis Co Regl
United States
Destination: KBFL Meadows
United States
More flights between these airports :: More routes between these airports
Route: KSBP FLW FASTO KBFL
File this flight plan on PilotEdge
Remarks:
Altitude:
(Current/Filed)
9,500ft
Speed:
(Current/Filed)
200kts
Departed: 14-Jan-20 08:03 PM
Arrived: 14-Jan-20 08:57 PM
Distance/Time
Traveled:
79nm/0:54
Distance/Time
To Go:
Arrived

Flight Plot

Page will automatically refresh every two minutes.

Flight plan parsing failed; only flown route is shown


Map Options




Map Legend


Flown Route
Filed Route
Departure Airport
Arrival Airport
Navaid (VOR, NDB)
Fix

Horizontal Profiles

Position Reports

Time Latitude Longitude Heading Altitude Ground
Speed
14-Jan-20 19:39 35.234436 -120.632955 213 216ft 0kts
14-Jan-20 19:40 35.234436 -120.632955 213 216ft 0kts
14-Jan-20 19:43 35.234436 -120.632955 213 216ft 0kts
14-Jan-20 19:44 35.234436 -120.632955 213 216ft 0kts
14-Jan-20 19:45 35.234436 -120.632955 213 216ft 0kts
14-Jan-20 19:46 35.234436 -120.632955 213 216ft 0kts
14-Jan-20 19:47 35.234436 -120.632955 213 216ft 0kts
14-Jan-20 19:48 35.234435 -120.632955 214 216ft 0kts
14-Jan-20 19:49 35.234435 -120.632955 214 216ft 0kts
14-Jan-20 19:50 35.234435 -120.632955 214 216ft 0kts
14-Jan-20 19:51 35.234435 -120.632955 214 216ft 0kts
14-Jan-20 19:52 35.234435 -120.632955 214 216ft 0kts
14-Jan-20 19:53 35.234435 -120.632955 214 216ft 0kts
14-Jan-20 19:54 35.234435 -120.632955 214 216ft 0kts
14-Jan-20 19:55 35.234435 -120.632955 214 216ft 0kts
14-Jan-20 19:56 35.234434 -120.632956 213 216ft 0kts
14-Jan-20 19:57 35.234434 -120.633468 301 216ft 2kts
14-Jan-20 19:58 35.233659 -120.632653 125 216ft 12kts
14-Jan-20 19:59 35.233195 -120.632352 204 216ft 0kts
14-Jan-20 20:00 35.233195 -120.632352 204 216ft 0kts
14-Jan-20 20:01 35.232795 -120.632883 265 216ft 15kts
14-Jan-20 20:02 35.239554 -120.645594 305 385ft 127kts
14-Jan-20 20:03 35.251241 -120.667447 306 1305ft 132kts
14-Jan-20 20:04 35.267297 -120.670787 35 2060ft 132kts
14-Jan-20 20:05 35.271759 -120.659350 85 2458ft 141kts
14-Jan-20 20:06 35.258533 -120.635168 131 3390ft 145kts
14-Jan-20 20:07 35.240699 -120.612416 129 4294ft 145kts
14-Jan-20 20:08 35.228035 -120.586354 103 5143ft 143kts
14-Jan-20 20:09 35.221734 -120.556926 97 5940ft 143kts
14-Jan-20 20:10 35.216272 -120.527436 97 6703ft 143kts
14-Jan-20 20:11 35.210769 -120.497408 97 7448ft 143kts
14-Jan-20 20:12 35.205199 -120.467075 97 8172ft 145kts
14-Jan-20 20:13 35.199719 -120.437197 97 8884ft 147kts
14-Jan-20 20:14 35.194440 -120.408503 97 9595ft 149kts
14-Jan-20 20:15 35.187666 -120.371607 99 9539ft 187kts
14-Jan-20 20:16 35.180046 -120.330564 100 9563ft 196kts
14-Jan-20 20:17 35.172557 -120.290153 100 9524ft 200kts
14-Jan-20 20:18 35.163538 -120.246581 105 9499ft 202kts
14-Jan-20 20:19 35.152385 -120.203580 105 9501ft 202kts
14-Jan-20 20:20 35.140612 -120.160458 107 9499ft 203kts
14-Jan-20 20:21 35.129139 -120.117752 102 9491ft 203kts
14-Jan-20 20:22 35.117808 -120.076343 127 9382ft 207kts
14-Jan-20 20:23 35.105902 -120.036730 106 9457ft 204kts
14-Jan-20 20:24 35.099890 -119.995466 86 9504ft 199kts
14-Jan-20 20:25 35.102083 -119.953019 83 9418ft 204kts
14-Jan-20 20:26 35.104595 -119.910499 83 9476ft 200kts
14-Jan-20 20:28 35.107193 -119.867637 83 9485ft 200kts
14-Jan-20 20:29 35.109845 -119.825226 83 9476ft 200kts
14-Jan-20 20:30 35.112048 -119.785300 84 9473ft 201kts
14-Jan-20 20:31 35.115432 -119.749710 77 9473ft 200kts
14-Jan-20 20:32 35.119859 -119.720881 75 9481ft 199kts
14-Jan-20 20:33 35.126574 -119.682201 74 9479ft 199kts
14-Jan-20 20:34 35.133774 -119.642020 74 9478ft 199kts
14-Jan-20 20:35 35.140747 -119.603374 74 9479ft 199kts
14-Jan-20 20:36 35.148313 -119.561425 74 9490ft 198kts
14-Jan-20 20:37 35.155897 -119.519248 74 9474ft 199kts
14-Jan-20 20:38 35.163560 -119.476577 74 9478ft 199kts
14-Jan-20 20:39 35.171276 -119.433525 74 9448ft 201kts
14-Jan-20 20:40 35.179742 -119.386197 74 9219ft 207kts
14-Jan-20 20:41 35.187926 -119.340356 75 8833ft 216kts
14-Jan-20 20:42 35.196939 -119.289665 76 8182ft 222kts
14-Jan-20 20:43 35.206146 -119.237777 76 7460ft 224kts
14-Jan-20 20:44 35.215404 -119.185465 76 6673ft 225kts
14-Jan-20 20:45 35.222918 -119.142926 77 6042ft 224kts
14-Jan-20 20:46 35.230607 -119.099263 77 5410ft 223kts
14-Jan-20 20:47 35.243797 -119.055007 59 4730ft 220kts
14-Jan-20 20:48 35.261753 -119.016916 59 4046ft 213kts
14-Jan-20 20:49 35.280239 -118.978220 58 3384ft 210kts
14-Jan-20 20:50 35.310583 -118.960100 345 2632ft 203kts
14-Jan-20 20:50 35.338277 -118.968634 343 2333ft 202kts
14-Jan-20 20:52 35.372357 -118.984730 321 1888ft 193kts
14-Jan-20 20:53 35.392425 -119.007267 313 1414ft 178kts
14-Jan-20 20:53 35.408763 -119.026015 312 1031ft 173kts
14-Jan-20 20:54 35.421610 -119.041677 312 806ft 103kts
14-Jan-20 20:55 35.432718 -119.054957 313 535ft 83kts
14-Jan-20 20:56 35.436267 -119.056932 119 510ft 17kts
14-Jan-20 20:57 35.434244 -119.054450 134 510ft 21kts
14-Jan-20 20:58 35.431938 -119.051665 135 510ft 23kts

Navigation Log

Ident Type
Flight plan parsing failed, navigation log unavailable